Reading, Vermont
Current Conditions -  °F | °C
As of 2:54 PM on Saturday 20 Dec 2014 (Local Time) from KVSF Reporting Station
Clear Clear  
Wind Chill: 32°   Ceiling: Unl
Heat Index: 32°   Visibility: 10mi
Dew Point: 15°   Wind: 0mph
Humidity: 50%   Direction: NA
Pressure: 30.26"   Gusts: NA
Location:  43.49°N, 72.55°W
Report Text: KVSF 201954Z AUTO 00000KT 10SM CLR 00/M09 A3026 RMK AO2 SLP254 T00001094 TSNO
Loading
Personal Weather Stations






























Interactive Weather Map New forecast layout! Learn more

10-Day Weather Forecast

Advertisements
Track Severe Weather on mobile